Time,TemperatureF,DewpointF,PressureIn,WindDirection,WindDirectionDegrees,WindSpeedMPH,WindSpeedGustMPH,Humidity,HourlyPrecipIn,Conditions,Clouds,dailyrainin,SolarRadiationWatts/m^2,SoftwareType,DateUTC
2013-01-08 00:02:00,55.0,54.0,-100.00,East,87,3.0,12.0,96,0.00,,,0.00,0.000000,,2013-01-08 10:02:00,
2013-01-08 00:12:00,55.0,54.0,-100.00,East,87,3.0,12.0,96,0.00,,,0.00,0.000000,,2013-01-08 10:12:00,
2013-01-08 00:22:00,55.0,54.0,-100.00,East,91,3.0,12.0,96,0.00,,,0.00,0.000000,,2013-01-08 10:22:00,
2013-01-08 00:42:00,55.0,54.0,-100.00,East,91,3.0,12.0,96,0.00,,,0.00,0.000000,,2013-01-08 10:42:00,
2013-01-08 00:52:00,55.0,54.0,-100.00,East,91,3.0,12.0,96,0.00,,,0.00,0.000000,,2013-01-08 10:52:00,
2013-01-08 01:02:00,55.0,54.0,-100.00,East,91,3.0,12.0,96,0.00,,,0.00,0.000000,,2013-01-08 11:02:00,
2013-01-08 01:12:00,55.0,54.0,-100.00,East,91,3.0,12.0,96,0.00,,,0.00,0.000000,,2013-01-08 11:12:00,
2013-01-08 01:22:00,55.0,53.0,-100.00,NNE,29,3.0,16.0,94,0.00,,,0.00,0.000000,,2013-01-08 11:22:00,
2013-01-08 01:42:00,55.0,53.0,-100.00,NNE,29,3.0,16.0,94,0.00,,,0.00,0.000000,,2013-01-08 11:42:00,
2013-01-08 01:53:00,55.0,53.0,-100.00,NNE,29,3.0,16.0,94,0.00,,,0.00,0.000000,,2013-01-08 11:53:00,
2013-01-08 02:02:00,55.0,53.0,-100.00,NNE,29,3.0,16.0,94,0.00,,,0.00,0.000000,,2013-01-08 12:02:00,
2013-01-08 02:12:00,55.0,53.0,-100.00,NNE,29,3.0,16.0,94,0.00,,,0.00,0.000000,,2013-01-08 12:12:00,
2013-01-08 02:22:00,55.0,54.0,-100.00,ESE,116,3.0,13.0,95,0.00,,,0.00,0.000000,,2013-01-08 12:22:00,
2013-01-08 02:43:00,55.0,54.0,-100.00,ESE,116,3.0,13.0,95,0.00,,,0.00,0.000000,,2013-01-08 12:43:00,
2013-01-08 02:53:00,55.0,54.0,-100.00,ESE,116,3.0,13.0,95,0.00,,,0.00,0.000000,,2013-01-08 12:53:00,
2013-01-08 03:03:00,55.0,54.0,-100.00,ESE,116,3.0,13.0,95,0.00,,,0.00,0.000000,,2013-01-08 13:03:00,
2013-01-08 03:12:00,55.0,54.0,-100.00,ESE,116,3.0,13.0,95,0.00,,,0.00,0.000000,,2013-01-08 13:12:00,
2013-01-08 03:22:00,54.0,53.0,-100.00,SE,127,3.0,12.0,95,0.00,,,0.00,0.000000,,2013-01-08 13:22:00,
2013-01-08 03:43:00,54.0,53.0,-100.00,SE,127,3.0,12.0,95,0.00,,,0.00,0.000000,,2013-01-08 13:43:00,
2013-01-08 03:53:00,54.0,53.0,-100.00,SE,127,3.0,12.0,95,0.00,,,0.00,0.000000,,2013-01-08 13:53:00,
2013-01-08 04:02:00,54.0,53.0,-100.00,SE,127,3.0,12.0,95,0.00,,,0.00,0.000000,,2013-01-08 14:02:00,
2013-01-08 04:12:00,54.0,53.0,-100.00,SE,127,3.0,12.0,95,0.00,,,0.00,0.000000,,2013-01-08 14:12:00,
2013-01-08 04:22:00,55.0,54.0,-100.00,WSW,254,3.0,11.0,97,0.00,,,0.00,0.000000,,2013-01-08 14:22:00,
2013-01-08 04:43:00,55.0,54.0,-100.00,WSW,254,3.0,11.0,97,0.00,,,0.00,0.000000,,2013-01-08 14:43:00,
2013-01-08 04:53:00,55.0,54.0,-100.00,WSW,254,3.0,11.0,97,0.00,,,0.00,0.000000,,2013-01-08 14:53:00,
2013-01-08 05:02:00,55.0,54.0,-100.00,WSW,254,3.0,11.0,97,0.00,,,0.00,0.000000,,2013-01-08 15:02:00,
2013-01-08 05:12:00,55.0,54.0,-100.00,WSW,254,3.0,11.0,97,0.00,,,0.00,0.000000,,2013-01-08 15:12:00,
2013-01-08 05:22:00,55.0,54.0,-100.00,WSW,254,3.0,15.0,97,0.00,,,-99.99,0.000000,,2013-01-08 15:22:00,
2013-01-08 05:43:00,55.0,54.0,-100.00,WSW,254,3.0,15.0,97,0.00,,,-99.99,0.000000,,2013-01-08 15:43:00,
2013-01-08 05:53:00,55.0,54.0,-100.00,WSW,254,3.0,15.0,97,0.00,,,-99.99,0.000000,,2013-01-08 15:53:00,
2013-01-08 06:02:00,55.0,54.0,-100.00,WSW,254,3.0,15.0,97,0.00,,,-99.99,0.000000,,2013-01-08 16:02:00,
2013-01-08 06:12:00,55.0,54.0,-100.00,WSW,254,3.0,15.0,97,0.00,,,-99.99,0.000000,,2013-01-08 16:12:00,
2013-01-08 06:22:00,55.0,54.0,-100.00,SSW,201,3.0,15.0,97,0.00,,,0.00,0.000000,,2013-01-08 16:22:00,
2013-01-08 06:43:00,55.0,54.0,-100.00,SSW,201,3.0,15.0,97,0.00,,,0.00,0.000000,,2013-01-08 16:43:00,
2013-01-08 06:53:00,55.0,54.0,-100.00,SSW,201,3.0,15.0,97,0.00,,,0.00,0.000000,,2013-01-08 16:53:00,
2013-01-08 07:02:00,55.0,54.0,-100.00,SSW,201,3.0,15.0,97,0.00,,,0.00,0.000000,,2013-01-08 17:02:00,
2013-01-08 07:12:00,55.0,54.0,-100.00,SSW,201,3.0,15.0,97,0.00,,,0.00,0.000000,,2013-01-08 17:12:00,
2013-01-08 07:22:00,54.0,53.0,-100.00,WNW,286,3.0,12.0,96,0.00,,,0.00,0.000000,,2013-01-08 17:22:00,
2013-01-08 07:43:00,54.0,53.0,-100.00,WNW,286,3.0,12.0,96,0.00,,,0.00,0.000000,,2013-01-08 17:43:00,
2013-01-08 07:53:00,54.0,53.0,-100.00,WNW,286,3.0,12.0,96,0.00,,,0.00,0.000000,,2013-01-08 17:53:00,
2013-01-08 08:03:00,54.0,53.0,-100.00,WNW,286,3.0,12.0,96,0.00,,,0.00,0.000000,,2013-01-08 18:03:00,
2013-01-08 08:12:00,54.0,53.0,-100.00,WNW,286,3.0,12.0,96,0.00,,,0.00,0.000000,,2013-01-08 18:12:00,
2013-01-08 08:22:00,54.0,53.0,-100.00,WNW,301,3.0,15.0,95,0.00,,,0.00,29.000000,,2013-01-08 18:22:00,
2013-01-08 08:43:00,54.0,53.0,-100.00,WNW,301,3.0,15.0,95,0.00,,,0.00,29.000000,,2013-01-08 18:43:00,
2013-01-08 08:53:00,54.0,53.0,-100.00,WNW,301,3.0,15.0,95,0.00,,,0.00,29.000000,,2013-01-08 18:53:00,
2013-01-08 09:03:00,54.0,53.0,-100.00,WNW,301,3.0,15.0,95,0.00,,,0.00,29.000000,,2013-01-08 19:03:00,
2013-01-08 09:12:00,54.0,53.0,-100.00,WNW,301,3.0,15.0,95,0.00,,,0.00,29.000000,,2013-01-08 19:12:00,
2013-01-08 09:22:00,55.0,54.0,-100.00,SE,138,3.0,14.0,96,0.00,,,0.00,98.000000,,2013-01-08 19:22:00,
2013-01-08 09:43:00,55.0,54.0,-100.00,SE,138,3.0,14.0,96,0.00,,,0.00,98.000000,,2013-01-08 19:43:00,
2013-01-08 09:53:00,55.0,54.0,-100.00,SE,138,3.0,14.0,96,0.00,,,0.00,98.000000,,2013-01-08 19:53:00,
2013-01-08 10:02:00,55.0,54.0,-100.00,SE,138,3.0,14.0,96,0.00,,,0.00,98.000000,,2013-01-08 20:02:00,
2013-01-08 10:12:00,55.0,54.0,-100.00,SE,138,3.0,14.0,96,0.00,,,0.00,98.000000,,2013-01-08 20:12:00,
2013-01-08 10:22:00,57.0,56.0,-100.00,East,94,4.0,16.0,96,0.00,,,0.00,161.000000,,2013-01-08 20:22:00,
2013-01-08 10:43:00,57.0,56.0,-100.00,East,94,4.0,16.0,96,0.00,,,0.00,161.000000,,2013-01-08 20:43:00,
2013-01-08 10:53:00,57.0,56.0,-100.00,East,94,4.0,16.0,96,0.00,,,0.00,161.000000,,2013-01-08 20:53:00,
2013-01-08 11:02:00,57.0,56.0,-100.00,East,94,4.0,16.0,96,0.00,,,0.00,161.000000,,2013-01-08 21:02:00,
2013-01-08 11:12:00,57.0,56.0,-100.00,East,94,4.0,16.0,96,0.00,,,0.00,161.000000,,2013-01-08 21:12:00,
2013-01-08 11:22:00,57.0,55.0,-100.00,WSW,258,3.0,18.0,93,0.00,,,0.00,260.000000,,2013-01-08 21:22:00,
2013-01-08 11:43:00,57.0,55.0,-100.00,WSW,258,3.0,18.0,93,0.00,,,0.00,260.000000,,2013-01-08 21:43:00,
2013-01-08 11:53:00,57.0,55.0,-100.00,WSW,258,3.0,18.0,93,0.00,,,0.00,260.000000,,2013-01-08 21:53:00,
2013-01-08 12:02:00,57.0,55.0,-100.00,WSW,258,3.0,18.0,93,0.00,,,0.00,260.000000,,2013-01-08 22:02:00,
2013-01-08 12:12:00,57.0,55.0,-100.00,WSW,258,3.0,18.0,93,0.00,,,0.00,260.000000,,2013-01-08 22:12:00,
2013-01-08 12:22:00,58.0,56.0,-100.00,NNW,334,3.0,15.0,94,0.00,,,0.00,276.000000,,2013-01-08 22:22:00,
2013-01-08 12:43:00,58.0,56.0,-100.00,NNW,334,3.0,15.0,94,0.00,,,0.00,276.000000,,2013-01-08 22:43:00,
2013-01-08 12:53:00,58.0,56.0,-100.00,NNW,334,3.0,15.0,94,0.00,,,0.00,276.000000,,2013-01-08 22:53:00,
2013-01-08 13:02:00,58.0,56.0,-100.00,NNW,334,3.0,15.0,94,0.00,,,0.00,276.000000,,2013-01-08 23:02:00,
2013-01-08 13:12:00,58.0,56.0,-100.00,NNW,334,3.0,15.0,94,0.00,,,0.00,276.000000,,2013-01-08 23:12:00,
2013-01-08 13:22:00,58.0,57.0,-100.00,WNW,300,3.0,15.0,96,0.00,,,0.00,236.000000,,2013-01-08 23:22:00,
2013-01-08 13:43:00,58.0,57.0,-100.00,WNW,300,3.0,15.0,96,0.00,,,0.00,236.000000,,2013-01-08 23:43:00,
2013-01-08 13:53:00,58.0,57.0,-100.00,WNW,300,3.0,15.0,96,0.00,,,0.00,236.000000,,2013-01-08 23:53:00,
2013-01-08 14:02:00,58.0,57.0,-100.00,WNW,300,3.0,15.0,96,0.00,,,0.00,236.000000,,2013-01-09 00:02:00,
2013-01-08 14:12:00,58.0,57.0,-100.00,WNW,300,3.0,15.0,96,0.00,,,0.00,236.000000,,2013-01-09 00:12:00,
2013-01-08 14:22:00,57.0,56.0,-100.00,WNW,297,3.0,14.0,96,0.00,,,0.00,229.000000,,2013-01-09 00:22:00,
2013-01-08 14:43:00,57.0,56.0,-100.00,WNW,297,3.0,14.0,96,0.00,,,0.00,229.000000,,2013-01-09 00:43:00,
2013-01-08 14:53:00,57.0,56.0,-100.00,WNW,297,3.0,14.0,96,0.00,,,0.00,229.000000,,2013-01-09 00:53:00,
2013-01-08 15:02:00,57.0,56.0,-100.00,WNW,297,3.0,14.0,96,0.00,,,0.00,229.000000,,2013-01-09 01:02:00,
2013-01-08 15:12:00,57.0,56.0,-100.00,WNW,297,3.0,14.0,96,0.00,,,0.00,229.000000,,2013-01-09 01:12:00,
2013-01-08 15:22:00,58.0,57.0,-100.00,NNE,29,3.0,13.0,96,0.00,,,0.00,212.000000,,2013-01-09 01:22:00,
2013-01-08 15:42:00,58.0,57.0,-100.00,NNE,29,3.0,13.0,96,0.00,,,0.00,212.000000,,2013-01-09 01:42:00,
2013-01-08 15:52:00,58.0,57.0,-100.00,NNE,29,3.0,13.0,96,0.00,,,0.00,212.000000,,2013-01-09 01:52:00,
2013-01-08 16:02:00,58.0,57.0,-100.00,NNE,29,3.0,13.0,96,0.00,,,0.00,212.000000,,2013-01-09 02:02:00,
2013-01-08 16:12:00,58.0,57.0,-100.00,NNE,29,3.0,13.0,96,0.00,,,0.00,212.000000,,2013-01-09 02:12:00,
2013-01-08 16:22:00,58.0,57.0,-100.00,NNW,339,3.0,16.0,96,0.00,,,0.00,170.000000,,2013-01-09 02:22:00,
2013-01-08 16:43:00,58.0,57.0,-100.00,NNW,339,3.0,16.0,96,0.00,,,0.00,170.000000,,2013-01-09 02:43:00,
2013-01-08 16:53:00,58.0,57.0,-100.00,NNW,339,3.0,16.0,96,0.00,,,0.00,170.000000,,2013-01-09 02:53:00,
2013-01-08 17:02:00,58.0,57.0,-100.00,NNW,339,3.0,16.0,96,0.00,,,0.00,170.000000,,2013-01-09 03:02:00,
2013-01-08 17:12:00,58.0,57.0,-100.00,NNW,339,3.0,16.0,96,0.00,,,0.00,170.000000,,2013-01-09 03:12:00,
2013-01-08 17:22:00,58.0,57.0,-100.00,East,94,3.0,10.0,96,0.00,,,0.00,114.000000,,2013-01-09 03:22:00,
2013-01-08 17:43:00,58.0,57.0,-100.00,East,94,3.0,10.0,96,0.00,,,0.00,114.000000,,2013-01-09 03:43:00,
2013-01-08 17:52:00,58.0,57.0,-100.00,East,94,3.0,10.0,96,0.00,,,0.00,114.000000,,2013-01-09 03:52:00,
2013-01-08 18:02:00,58.0,57.0,-100.00,East,94,3.0,10.0,96,0.00,,,0.00,114.000000,,2013-01-09 04:02:00,
2013-01-08 18:12:00,58.0,57.0,-100.00,East,94,3.0,10.0,96,0.00,,,0.00,114.000000,,2013-01-09 04:12:00,
2013-01-08 18:22:00,57.0,56.0,-100.00,East,98,3.0,12.0,97,0.00,,,0.00,40.000000,,2013-01-09 04:22:00,
2013-01-08 18:43:00,57.0,56.0,-100.00,East,98,3.0,12.0,97,0.00,,,0.00,40.000000,,2013-01-09 04:43:00,
2013-01-08 18:52:00,57.0,56.0,-100.00,East,98,3.0,12.0,97,0.00,,,0.00,40.000000,,2013-01-09 04:52:00,
2013-01-08 19:03:00,57.0,56.0,-100.00,East,98,3.0,12.0,97,0.00,,,0.00,40.000000,,2013-01-09 05:03:00,
2013-01-08 19:12:00,57.0,56.0,-100.00,East,98,3.0,12.0,97,0.00,,,0.00,40.000000,,2013-01-09 05:12:00,
2013-01-08 19:22:00,57.0,56.0,-100.00,East,90,3.0,13.0,97,0.00,,,0.00,0.000000,,2013-01-09 05:22:00,
2013-01-08 19:43:00,57.0,56.0,-100.00,East,90,3.0,13.0,97,0.00,,,0.00,0.000000,,2013-01-09 05:43:00,
2013-01-08 19:52:00,57.0,56.0,-100.00,East,90,3.0,13.0,97,0.00,,,0.00,0.000000,,2013-01-09 05:52:00,
2013-01-08 20:02:00,57.0,56.0,-100.00,East,90,3.0,13.0,97,0.00,,,0.00,0.000000,,2013-01-09 06:02:00,
2013-01-08 20:12:00,57.0,56.0,-100.00,East,90,3.0,13.0,97,0.00,,,0.00,0.000000,,2013-01-09 06:12:00,
2013-01-08 20:22:00,57.0,56.0,-100.00,East,95,3.0,17.0,97,0.00,,,0.00,0.000000,,2013-01-09 06:22:00,
2013-01-08 20:42:00,57.0,56.0,-100.00,East,95,3.0,17.0,97,0.00,,,0.00,0.000000,,2013-01-09 06:42:00,
2013-01-08 20:52:00,57.0,56.0,-100.00,East,95,3.0,17.0,97,0.00,,,0.00,0.000000,,2013-01-09 06:52:00,
2013-01-08 21:02:00,57.0,56.0,-100.00,East,95,3.0,17.0,97,0.00,,,0.00,0.000000,,2013-01-09 07:02:00,
2013-01-08 21:11:00,57.0,56.0,-100.00,East,95,3.0,17.0,97,0.00,,,0.00,0.000000,,2013-01-09 07:11:00,
2013-01-08 21:22:00,57.0,56.0,-100.00,ESE,111,4.0,17.0,97,0.00,,,0.00,0.000000,,2013-01-09 07:22:00,
2013-01-08 21:42:00,57.0,56.0,-100.00,ESE,111,4.0,17.0,97,0.00,,,0.00,0.000000,,2013-01-09 07:42:00,
2013-01-08 21:52:00,57.0,56.0,-100.00,ESE,111,4.0,17.0,97,0.00,,,0.00,0.000000,,2013-01-09 07:52:00,
2013-01-08 22:02:00,57.0,56.0,-100.00,ESE,111,4.0,17.0,97,0.00,,,0.00,0.000000,,2013-01-09 08:02:00,
2013-01-08 22:12:00,57.0,56.0,-100.00,ESE,111,4.0,17.0,97,0.00,,,0.00,0.000000,,2013-01-09 08:12:00,
2013-01-08 22:22:00,57.0,56.0,-100.00,East,79,3.0,18.0,97,0.00,,,0.00,0.000000,,2013-01-09 08:22:00,
2013-01-08 22:43:00,57.0,56.0,-100.00,East,79,3.0,18.0,97,0.00,,,0.00,0.000000,,2013-01-09 08:43:00,
2013-01-08 22:53:00,57.0,56.0,-100.00,East,79,3.0,18.0,97,0.00,,,0.00,0.000000,,2013-01-09 08:53:00,
2013-01-08 23:02:00,57.0,56.0,-100.00,East,79,3.0,18.0,97,0.00,,,0.00,0.000000,,2013-01-09 09:02:00,
2013-01-08 23:12:00,57.0,56.0,-100.00,East,79,3.0,18.0,97,0.00,,,0.00,0.000000,,2013-01-09 09:12:00,
2013-01-08 23:22:00,57.0,56.0,-100.00,ESE,108,4.0,17.0,97,0.00,,,0.00,0.000000,,2013-01-09 09:22:00,
2013-01-08 23:42:00,57.0,56.0,-100.00,ESE,108,4.0,17.0,97,0.00,,,0.00,0.000000,,2013-01-09 09:42:00,
2013-01-08 23:53:00,57.0,56.0,-100.00,ESE,108,4.0,17.0,97,0.00,,,0.00,0.000000,,2013-01-09 09:53:00,